sensor_id;sensor_type;location;lat;lon;timestamp;P1;durP1;ratioP1;P2;durP2;ratioP2
56073;SDS011;41950;55.840;37.442;2023-04-29T00:00:22;3.42;;;2.00;;
56073;SDS011;41950;55.840;37.442;2023-04-29T00:02:48;4.43;;;2.10;;
56073;SDS011;41950;55.840;37.442;2023-04-29T00:05:13;3.60;;;2.22;;
56073;SDS011;41950;55.840;37.442;2023-04-29T00:07:39;3.58;;;2.38;;
56073;SDS011;41950;55.840;37.442;2023-04-29T00:10:05;2.65;;;1.65;;
56073;SDS011;41950;55.840;37.442;2023-04-29T00:12:32;3.03;;;1.42;;
56073;SDS011;41950;55.840;37.442;2023-04-29T00:14:59;2.90;;;1.75;;
56073;SDS011;41950;55.840;37.442;2023-04-29T00:17:32;2.97;;;1.88;;
56073;SDS011;41950;55.840;37.442;2023-04-29T00:19:57;3.10;;;2.00;;
56073;SDS011;41950;55.840;37.442;2023-04-29T00:22:23;3.85;;;1.60;;
56073;SDS011;41950;55.840;37.442;2023-04-29T00:24:49;2.53;;;1.50;;
56073;SDS011;41950;55.840;37.442;2023-04-29T00:27:15;3.00;;;1.45;;
56073;SDS011;41950;55.840;37.442;2023-04-29T00:29:42;2.75;;;1.40;;
56073;SDS011;41950;55.840;37.442;2023-04-29T00:32:08;3.08;;;1.40;;
56073;SDS011;41950;55.840;37.442;2023-04-29T00:34:34;2.42;;;1.50;;
56073;SDS011;41950;55.840;37.442;2023-04-29T00:36:59;2.88;;;1.60;;
56073;SDS011;41950;55.840;37.442;2023-04-29T00:39:25;2.67;;;1.65;;
56073;SDS011;41950;55.840;37.442;2023-04-29T00:41:51;2.97;;;1.83;;
56073;SDS011;41950;55.840;37.442;2023-04-29T00:44:17;3.08;;;1.88;;
56073;SDS011;41950;55.840;37.442;2023-04-29T00:46:43;3.28;;;2.20;;
56073;SDS011;41950;55.840;37.442;2023-04-29T00:49:09;2.88;;;1.90;;
56073;SDS011;41950;55.840;37.442;2023-04-29T00:51:37;2.92;;;1.77;;
56073;SDS011;41950;55.840;37.442;2023-04-29T00:54:05;3.60;;;2.10;;
56073;SDS011;41950;55.840;37.442;2023-04-29T00:56:32;2.92;;;1.42;;
56073;SDS011;41950;55.840;37.442;2023-04-29T00:59:00;3.05;;;1.92;;
56073;SDS011;41950;55.840;37.442;2023-04-29T01:01:28;2.55;;;1.77;;
56073;SDS011;41950;55.840;37.442;2023-04-29T01:03:55;2.97;;;1.80;;
56073;SDS011;41950;55.840;37.442;2023-04-29T01:06:27;2.90;;;1.77;;
56073;SDS011;41950;55.840;37.442;2023-04-29T01:14:53;1.88;;;0.98;;
56073;SDS011;41950;55.840;37.442;2023-04-29T01:17:35;2.50;;;1.40;;
56073;SDS011;41950;55.840;37.442;2023-04-29T01:20:05;2.80;;;1.55;;
56073;SDS011;41950;55.840;37.442;2023-04-29T01:22:33;2.80;;;1.50;;
56073;SDS011;41950;55.840;37.442;2023-04-29T01:24:59;2.72;;;1.30;;
56073;SDS011;41950;55.840;37.442;2023-04-29T01:27:30;2.95;;;1.50;;
56073;SDS011;41950;55.840;37.442;2023-04-29T01:30:13;2.05;;;1.10;;
56073;SDS011;41950;55.840;37.442;2023-04-29T01:41:39;2.30;;;1.20;;
56073;SDS011;41950;55.840;37.442;2023-04-29T01:44:09;2.55;;;1.40;;
56073;SDS011;41950;55.840;37.442;2023-04-29T01:46:43;2.53;;;1.35;;
56073;SDS011;41950;55.840;37.442;2023-04-29T01:49:27;2.08;;;1.13;;
56073;SDS011;41950;55.840;37.442;2023-04-29T01:51:53;3.20;;;1.50;;
56073;SDS011;41950;55.840;37.442;2023-04-29T01:54:20;2.55;;;1.40;;
56073;SDS011;41950;55.840;37.442;2023-04-29T01:56:48;2.30;;;1.30;;
56073;SDS011;41950;55.840;37.442;2023-04-29T01:59:16;1.90;;;1.00;;
56073;SDS011;41950;55.840;37.442;2023-04-29T02:01:42;2.53;;;1.40;;
56073;SDS011;41950;55.840;37.442;2023-04-29T02:04:07;2.70;;;1.48;;
56073;SDS011;41950;55.840;37.442;2023-04-29T02:06:33;3.22;;;1.50;;
56073;SDS011;41950;55.840;37.442;2023-04-29T02:08:59;2.88;;;1.65;;
56073;SDS011;41950;55.840;37.442;2023-04-29T02:11:25;2.13;;;1.27;;
56073;SDS011;41950;55.840;37.442;2023-04-29T02:13:54;4.70;;;1.50;;
56073;SDS011;41950;55.840;37.442;2023-04-29T02:16:20;2.20;;;1.20;;
56073;SDS011;41950;55.840;37.442;2023-04-29T02:18:46;2.60;;;1.50;;
56073;SDS011;41950;55.840;37.442;2023-04-29T02:21:12;3.80;;;1.67;;
56073;SDS011;41950;55.840;37.442;2023-04-29T02:23:38;2.30;;;1.05;;
56073;SDS011;41950;55.840;37.442;2023-04-29T02:26:03;2.05;;;1.10;;
56073;SDS011;41950;55.840;37.442;2023-04-29T02:28:34;2.50;;;1.10;;
56073;SDS011;41950;55.840;37.442;2023-04-29T02:31:00;2.67;;;1.40;;
56073;SDS011;41950;55.840;37.442;2023-04-29T02:33:25;2.42;;;1.20;;
56073;SDS011;41950;55.840;37.442;2023-04-29T02:35:51;2.30;;;1.38;;
56073;SDS011;41950;55.840;37.442;2023-04-29T02:38:17;2.40;;;1.13;;
56073;SDS011;41950;55.840;37.442;2023-04-29T02:40:43;2.40;;;1.30;;
56073;SDS011;41950;55.840;37.442;2023-04-29T02:43:10;1.77;;;1.08;;
56073;SDS011;41950;55.840;37.442;2023-04-29T02:45:37;2.25;;;1.20;;
56073;SDS011;41950;55.840;37.442;2023-04-29T02:48:03;3.65;;;1.20;;
56073;SDS011;41950;55.840;37.442;2023-04-29T02:50:30;2.25;;;1.10;;
56073;SDS011;41950;55.840;37.442;2023-04-29T02:52:56;2.25;;;1.00;;
56073;SDS011;41950;55.840;37.442;2023-04-29T02:55:23;2.85;;;1.30;;
56073;SDS011;41950;55.840;37.442;2023-04-29T02:57:48;2.20;;;1.10;;
56073;SDS011;41950;55.840;37.442;2023-04-29T03:00:14;2.80;;;1.23;;
56073;SDS011;41950;55.840;37.442;2023-04-29T03:02:40;2.08;;;1.05;;
56073;SDS011;41950;55.840;37.442;2023-04-29T03:05:06;2.10;;;1.13;;
56073;SDS011;41950;55.840;37.442;2023-04-29T03:07:32;2.80;;;1.20;;
56073;SDS011;41950;55.840;37.442;2023-04-29T03:09:57;2.60;;;1.40;;
56073;SDS011;41950;55.840;37.442;2023-04-29T03:12:23;2.47;;;1.30;;
56073;SDS011;41950;55.840;37.442;2023-04-29T03:14:49;4.63;;;1.60;;
56073;SDS011;41950;55.840;37.442;2023-04-29T03:17:16;2.22;;;1.30;;
56073;SDS011;41950;55.840;37.442;2023-04-29T03:19:45;2.13;;;1.10;;
56073;SDS011;41950;55.840;37.442;2023-04-29T03:22:13;1.85;;;0.90;;
56073;SDS011;41950;55.840;37.442;2023-04-29T03:24:39;1.77;;;0.90;;
56073;SDS011;41950;55.840;37.442;2023-04-29T03:27:05;2.17;;;1.00;;
56073;SDS011;41950;55.840;37.442;2023-04-29T03:29:34;1.50;;;0.68;;
56073;SDS011;41950;55.840;37.442;2023-04-29T03:31:59;2.45;;;0.80;;
56073;SDS011;41950;55.840;37.442;2023-04-29T03:34:26;1.95;;;0.80;;
56073;SDS011;41950;55.840;37.442;2023-04-29T03:36:53;2.67;;;1.05;;
56073;SDS011;41950;55.840;37.442;2023-04-29T03:39:18;2.15;;;1.13;;
56073;SDS011;41950;55.840;37.442;2023-04-29T03:41:45;2.05;;;1.00;;
56073;SDS011;41950;55.840;37.442;2023-04-29T03:44:11;1.92;;;1.00;;
56073;SDS011;41950;55.840;37.442;2023-04-29T03:46:37;2.20;;;0.95;;
56073;SDS011;41950;55.840;37.442;2023-04-29T03:49:03;2.15;;;1.10;;
56073;SDS011;41950;55.840;37.442;2023-04-29T03:51:29;1.85;;;0.90;;
56073;SDS011;41950;55.840;37.442;2023-04-29T03:53:55;3.78;;;1.30;;
56073;SDS011;41950;55.840;37.442;2023-04-29T03:56:22;3.08;;;1.40;;
56073;SDS011;41950;55.840;37.442;2023-04-29T03:58:52;2.60;;;1.40;;
56073;SDS011;41950;55.840;37.442;2023-04-29T04:01:18;2.50;;;1.48;;
56073;SDS011;41950;55.840;37.442;2023-04-29T04:03:44;2.78;;;1.73;;
56073;SDS011;41950;55.840;37.442;2023-04-29T04:06:10;4.38;;;1.20;;
56073;SDS011;41950;55.840;37.442;2023-04-29T04:08:36;2.45;;;1.20;;
56073;SDS011;41950;55.840;37.442;2023-04-29T04:11:01;3.45;;;1.40;;
56073;SDS011;41950;55.840;37.442;2023-04-29T04:13:28;3.00;;;1.50;;
56073;SDS011;41950;55.840;37.442;2023-04-29T04:15:54;3.45;;;1.50;;
56073;SDS011;41950;55.840;37.442;2023-04-29T04:18:20;2.50;;;1.25;;
56073;SDS011;41950;55.840;37.442;2023-04-29T04:20:46;3.13;;;1.52;;
56073;SDS011;41950;55.840;37.442;2023-04-29T04:23:12;2.65;;;1.40;;
56073;SDS011;41950;55.840;37.442;2023-04-29T04:25:43;3.47;;;1.70;;
56073;SDS011;41950;55.840;37.442;2023-04-29T04:30:36;3.90;;;2.03;;
56073;SDS011;41950;55.840;37.442;2023-04-29T04:33:01;2.70;;;1.42;;
56073;SDS011;41950;55.840;37.442;2023-04-29T04:35:28;2.85;;;1.50;;
56073;SDS011;41950;55.840;37.442;2023-04-29T04:37:54;2.90;;;1.70;;
56073;SDS011;41950;55.840;37.442;2023-04-29T04:40:19;3.78;;;1.70;;
56073;SDS011;41950;55.840;37.442;2023-04-29T04:42:46;4.28;;;1.80;;
56073;SDS011;41950;55.840;37.442;2023-04-29T04:45:12;2.85;;;1.88;;
56073;SDS011;41950;55.840;37.442;2023-04-29T04:47:39;3.50;;;1.80;;
56073;SDS011;41950;55.840;37.442;2023-04-29T04:50:06;4.18;;;2.00;;
56073;SDS011;41950;55.840;37.442;2023-04-29T04:52:33;3.38;;;2.10;;
56073;SDS011;41950;55.840;37.442;2023-04-29T04:54:59;3.13;;;1.92;;
56073;SDS011;41950;55.840;37.442;2023-04-29T04:57:25;3.92;;;2.17;;
56073;SDS011;41950;55.840;37.442;2023-04-29T04:59:51;3.47;;;2.15;;
56073;SDS011;41950;55.840;37.442;2023-04-29T05:02:16;3.85;;;2.20;;
56073;SDS011;41950;55.840;37.442;2023-04-29T05:04:42;3.72;;;2.10;;
56073;SDS011;41950;55.840;37.442;2023-04-29T05:07:08;3.42;;;1.92;;
56073;SDS011;41950;55.840;37.442;2023-04-29T05:09:35;3.83;;;1.92;;
56073;SDS011;41950;55.840;37.442;2023-04-29T05:12:01;3.42;;;1.90;;
56073;SDS011;41950;55.840;37.442;2023-04-29T05:14:30;3.28;;;2.17;;
56073;SDS011;41950;55.840;37.442;2023-04-29T05:16:58;3.15;;;1.80;;
56073;SDS011;41950;55.840;37.442;2023-04-29T05:19:24;3.83;;;2.22;;
56073;SDS011;41950;55.840;37.442;2023-04-29T05:21:50;3.30;;;2.10;;
56073;SDS011;41950;55.840;37.442;2023-04-29T05:24:16;2.67;;;1.70;;
56073;SDS011;41950;55.840;37.442;2023-04-29T05:26:42;4.82;;;3.45;;
56073;SDS011;41950;55.840;37.442;2023-04-29T05:29:11;5.38;;;4.22;;
56073;SDS011;41950;55.840;37.442;2023-04-29T05:31:37;8.40;;;7.60;;
56073;SDS011;41950;55.840;37.442;2023-04-29T05:34:06;6.72;;;6.03;;
56073;SDS011;41950;55.840;37.442;2023-04-29T05:36:31;7.30;;;6.60;;
56073;SDS011;41950;55.840;37.442;2023-04-29T05:38:57;7.18;;;6.40;;
56073;SDS011;41950;55.840;37.442;2023-04-29T05:41:23;8.77;;;7.88;;
56073;SDS011;41950;55.840;37.442;2023-04-29T05:43:49;7.88;;;7.07;;
56073;SDS011;41950;55.840;37.442;2023-04-29T05:46:15;4.80;;;4.07;;
56073;SDS011;41950;55.840;37.442;2023-04-29T05:48:41;3.70;;;2.90;;
56073;SDS011;41950;55.840;37.442;2023-04-29T05:51:07;4.57;;;3.47;;
56073;SDS011;41950;55.840;37.442;2023-04-29T05:53:33;4.78;;;3.35;;
56073;SDS011;41950;55.840;37.442;2023-04-29T05:55:59;4.40;;;2.70;;
56073;SDS011;41950;55.840;37.442;2023-04-29T05:58:29;3.95;;;2.63;;
56073;SDS011;41950;55.840;37.442;2023-04-29T06:00:54;4.43;;;2.60;;
56073;SDS011;41950;55.840;37.442;2023-04-29T06:03:20;5.15;;;2.80;;
56073;SDS011;41950;55.840;37.442;2023-04-29T06:05:46;4.60;;;2.75;;
56073;SDS011;41950;55.840;37.442;2023-04-29T06:08:12;3.97;;;2.50;;
56073;SDS011;41950;55.840;37.442;2023-04-29T06:10:38;3.10;;;2.05;;
56073;SDS011;41950;55.840;37.442;2023-04-29T06:13:04;3.67;;;2.25;;
56073;SDS011;41950;55.840;37.442;2023-04-29T06:15:30;4.47;;;2.40;;
56073;SDS011;41950;55.840;37.442;2023-04-29T06:17:56;3.45;;;2.05;;
56073;SDS011;41950;55.840;37.442;2023-04-29T06:20:22;4.63;;;2.08;;
56073;SDS011;41950;55.840;37.442;2023-04-29T06:22:48;4.22;;;2.15;;
56073;SDS011;41950;55.840;37.442;2023-04-29T06:25:13;4.97;;;2.80;;
56073;SDS011;41950;55.840;37.442;2023-04-29T06:27:39;4.18;;;2.60;;
56073;SDS011;41950;55.840;37.442;2023-04-29T06:30:05;3.78;;;2.45;;
56073;SDS011;41950;55.840;37.442;2023-04-29T06:32:32;3.28;;;2.15;;
56073;SDS011;41950;55.840;37.442;2023-04-29T06:34:58;5.05;;;2.75;;
56073;SDS011;41950;55.840;37.442;2023-04-29T06:37:24;3.60;;;2.20;;
56073;SDS011;41950;55.840;37.442;2023-04-29T06:39:49;4.13;;;2.30;;
56073;SDS011;41950;55.840;37.442;2023-04-29T06:42:23;3.78;;;2.40;;
56073;SDS011;41950;55.840;37.442;2023-04-29T06:45:03;4.00;;;2.63;;
56073;SDS011;41950;55.840;37.442;2023-04-29T06:47:38;3.22;;;1.70;;
56073;SDS011;41950;55.840;37.442;2023-04-29T06:50:04;3.40;;;2.33;;
56073;SDS011;41950;55.840;37.442;2023-04-29T06:52:33;5.55;;;2.65;;
56073;SDS011;41950;55.840;37.442;2023-04-29T06:54:59;3.90;;;2.25;;
56073;SDS011;41950;55.840;37.442;2023-04-29T06:57:25;3.30;;;2.30;;
56073;SDS011;41950;55.840;37.442;2023-04-29T06:59:51;5.82;;;2.10;;
56073;SDS011;41950;55.840;37.442;2023-04-29T07:02:17;4.00;;;2.17;;
56073;SDS011;41950;55.840;37.442;2023-04-29T07:04:42;2.90;;;1.60;;
56073;SDS011;41950;55.840;37.442;2023-04-29T07:07:08;3.67;;;1.98;;
56073;SDS011;41950;55.840;37.442;2023-04-29T07:09:34;3.95;;;2.30;;
56073;SDS011;41950;55.840;37.442;2023-04-29T07:12:00;2.90;;;1.90;;
56073;SDS011;41950;55.840;37.442;2023-04-29T07:14:29;2.60;;;1.58;;
56073;SDS011;41950;55.840;37.442;2023-04-29T07:16:55;3.38;;;2.25;;
56073;SDS011;41950;55.840;37.442;2023-04-29T07:19:20;3.78;;;2.00;;
56073;SDS011;41950;55.840;37.442;2023-04-29T07:21:46;3.40;;;2.13;;
56073;SDS011;41950;55.840;37.442;2023-04-29T07:24:12;3.97;;;2.08;;
56073;SDS011;41950;55.840;37.442;2023-04-29T07:26:42;3.70;;;2.10;;
56073;SDS011;41950;55.840;37.442;2023-04-29T07:29:09;10.43;;;9.35;;
56073;SDS011;41950;55.840;37.442;2023-04-29T07:31:35;2.97;;;1.90;;
56073;SDS011;41950;55.840;37.442;2023-04-29T07:34:03;3.08;;;1.83;;
56073;SDS011;41950;55.840;37.442;2023-04-29T07:36:29;3.50;;;1.92;;
56073;SDS011;41950;55.840;37.442;2023-04-29T07:38:55;3.53;;;2.30;;
56073;SDS011;41950;55.840;37.442;2023-04-29T07:41:23;3.72;;;2.13;;
56073;SDS011;41950;55.840;37.442;2023-04-29T07:43:49;4.03;;;2.20;;
56073;SDS011;41950;55.840;37.442;2023-04-29T07:46:15;3.17;;;1.92;;
56073;SDS011;41950;55.840;37.442;2023-04-29T07:48:45;3.78;;;2.00;;
56073;SDS011;41950;55.840;37.442;2023-04-29T07:51:14;4.45;;;1.90;;
56073;SDS011;41950;55.840;37.442;2023-04-29T07:53:42;3.38;;;2.00;;
56073;SDS011;41950;55.840;37.442;2023-04-29T07:56:08;3.17;;;1.65;;
56073;SDS011;41950;55.840;37.442;2023-04-29T07:58:34;3.38;;;1.95;;
56073;SDS011;41950;55.840;37.442;2023-04-29T08:01:09;3.25;;;1.80;;
56073;SDS011;41950;55.840;37.442;2023-04-29T08:03:36;3.63;;;2.00;;
56073;SDS011;41950;55.840;37.442;2023-04-29T08:06:02;3.33;;;1.95;;
56073;SDS011;41950;55.840;37.442;2023-04-29T08:08:29;3.38;;;1.80;;
56073;SDS011;41950;55.840;37.442;2023-04-29T08:10:58;3.20;;;1.73;;
56073;SDS011;41950;55.840;37.442;2023-04-29T08:13:27;4.00;;;1.80;;
56073;SDS011;41950;55.840;37.442;2023-04-29T08:15:53;2.83;;;1.67;;
56073;SDS011;41950;55.840;37.442;2023-04-29T08:18:18;4.00;;;1.90;;
56073;SDS011;41950;55.840;37.442;2023-04-29T08:20:46;2.90;;;1.60;;
56073;SDS011;41950;55.840;37.442;2023-04-29T08:23:13;2.78;;;1.80;;
56073;SDS011;41950;55.840;37.442;2023-04-29T08:25:40;4.75;;;2.00;;
56073;SDS011;41950;55.840;37.442;2023-04-29T08:28:07;4.05;;;1.75;;
56073;SDS011;41950;55.840;37.442;2023-04-29T08:30:35;2.95;;;1.70;;
56073;SDS011;41950;55.840;37.442;2023-04-29T08:33:02;3.70;;;1.80;;
56073;SDS011;41950;55.840;37.442;2023-04-29T08:35:28;4.78;;;2.20;;
56073;SDS011;41950;55.840;37.442;2023-04-29T08:37:54;3.40;;;1.80;;
56073;SDS011;41950;55.840;37.442;2023-04-29T08:40:19;3.38;;;1.70;;
56073;SDS011;41950;55.840;37.442;2023-04-29T08:42:45;2.65;;;1.40;;
56073;SDS011;41950;55.840;37.442;2023-04-29T08:45:14;2.95;;;1.30;;
56073;SDS011;41950;55.840;37.442;2023-04-29T08:47:44;2.92;;;1.60;;
56073;SDS011;41950;55.840;37.442;2023-04-29T08:50:10;3.63;;;1.60;;
56073;SDS011;41950;55.840;37.442;2023-04-29T08:52:37;3.30;;;1.75;;
56073;SDS011;41950;55.840;37.442;2023-04-29T08:55:03;3.80;;;1.70;;
56073;SDS011;41950;55.840;37.442;2023-04-29T08:57:34;3.13;;;1.60;;
56073;SDS011;41950;55.840;37.442;2023-04-29T09:00:08;3.55;;;1.58;;
56073;SDS011;41950;55.840;37.442;2023-04-29T09:02:46;2.42;;;1.15;;
56073;SDS011;41950;55.840;37.442;2023-04-29T09:05:15;3.53;;;1.60;;
56073;SDS011;41950;55.840;37.442;2023-04-29T09:07:41;3.55;;;1.60;;
56073;SDS011;41950;55.840;37.442;2023-04-29T09:10:08;3.95;;;1.60;;
56073;SDS011;41950;55.840;37.442;2023-04-29T09:12:35;3.03;;;1.30;;
56073;SDS011;41950;55.840;37.442;2023-04-29T09:15:01;3.78;;;1.45;;
56073;SDS011;41950;55.840;37.442;2023-04-29T09:17:40;3.25;;;1.65;;
56073;SDS011;41950;55.840;37.442;2023-04-29T09:22:48;3.47;;;1.75;;
56073;SDS011;41950;55.840;37.442;2023-04-29T09:25:22;3.65;;;1.58;;
56073;SDS011;41950;55.840;37.442;2023-04-29T09:27:48;3.55;;;1.52;;
56073;SDS011;41950;55.840;37.442;2023-04-29T09:30:15;2.55;;;1.38;;
56073;SDS011;41950;55.840;37.442;2023-04-29T09:32:41;4.00;;;1.50;;
56073;SDS011;41950;55.840;37.442;2023-04-29T09:38:06;3.53;;;1.67;;
56073;SDS011;41950;55.840;37.442;2023-04-29T09:40:33;2.90;;;1.45;;
56073;SDS011;41950;55.840;37.442;2023-04-29T09:43:00;2.97;;;1.60;;
56073;SDS011;41950;55.840;37.442;2023-04-29T09:45:33;3.30;;;1.70;;
56073;SDS011;41950;55.840;37.442;2023-04-29T09:48:03;3.83;;;1.60;;
56073;SDS011;41950;55.840;37.442;2023-04-29T09:50:33;4.47;;;1.60;;
56073;SDS011;41950;55.840;37.442;2023-04-29T09:53:04;3.15;;;1.45;;
56073;SDS011;41950;55.840;37.442;2023-04-29T09:55:38;3.15;;;1.52;;
56073;SDS011;41950;55.840;37.442;2023-04-29T09:58:32;4.13;;;1.50;;
56073;SDS011;41950;55.840;37.442;2023-04-29T10:01:09;3.70;;;1.63;;
56073;SDS011;41950;55.840;37.442;2023-04-29T10:03:37;3.15;;;1.60;;
56073;SDS011;41950;55.840;37.442;2023-04-29T10:06:04;2.72;;;1.40;;
56073;SDS011;41950;55.840;37.442;2023-04-29T10:08:31;2.80;;;1.50;;
56073;SDS011;41950;55.840;37.442;2023-04-29T10:11:02;3.80;;;1.60;;
56073;SDS011;41950;55.840;37.442;2023-04-29T10:13:33;3.08;;;1.73;;
56073;SDS011;41950;55.840;37.442;2023-04-29T10:18:53;3.05;;;1.50;;
56073;SDS011;41950;55.840;37.442;2023-04-29T10:21:26;3.33;;;1.55;;
56073;SDS011;41950;55.840;37.442;2023-04-29T10:23:58;3.42;;;1.45;;
56073;SDS011;41950;55.840;37.442;2023-04-29T10:26:29;3.67;;;1.57;;
56073;SDS011;41950;55.840;37.442;2023-04-29T10:28:57;3.38;;;1.67;;
56073;SDS011;41950;55.840;37.442;2023-04-29T10:31:24;3.38;;;1.95;;
56073;SDS011;41950;55.840;37.442;2023-04-29T10:33:55;3.88;;;1.80;;
56073;SDS011;41950;55.840;37.442;2023-04-29T10:36:26;3.33;;;1.65;;
56073;SDS011;41950;55.840;37.442;2023-04-29T10:39:01;2.90;;;1.50;;
56073;SDS011;41950;55.840;37.442;2023-04-29T10:41:36;3.45;;;1.70;;
56073;SDS011;41950;55.840;37.442;2023-04-29T10:44:11;5.25;;;1.75;;
56073;SDS011;41950;55.840;37.442;2023-04-29T10:46:40;2.70;;;1.52;;
56073;SDS011;41950;55.840;37.442;2023-04-29T10:49:06;4.35;;;1.70;;
56073;SDS011;41950;55.840;37.442;2023-04-29T10:51:33;3.08;;;1.58;;
56073;SDS011;41950;55.840;37.442;2023-04-29T10:54:11;2.78;;;1.23;;
56073;SDS011;41950;55.840;37.442;2023-04-29T10:56:39;3.25;;;1.60;;
56073;SDS011;41950;55.840;37.442;2023-04-29T10:59:11;3.15;;;1.45;;
56073;SDS011;41950;55.840;37.442;2023-04-29T11:01:48;3.67;;;1.50;;
56073;SDS011;41950;55.840;37.442;2023-04-29T11:04:16;5.00;;;1.88;;
56073;SDS011;41950;55.840;37.442;2023-04-29T11:06:44;6.80;;;2.00;;
56073;SDS011;41950;55.840;37.442;2023-04-29T11:09:12;3.92;;;1.40;;
56073;SDS011;41950;55.840;37.442;2023-04-29T11:11:58;4.15;;;1.75;;
56073;SDS011;41950;55.840;37.442;2023-04-29T11:14:34;3.90;;;1.40;;
56073;SDS011;41950;55.840;37.442;2023-04-29T11:17:02;3.33;;;1.35;;
56073;SDS011;41950;55.840;37.442;2023-04-29T11:19:33;3.78;;;1.55;;
56073;SDS011;41950;55.840;37.442;2023-04-29T11:22:14;3.55;;;1.45;;
56073;SDS011;41950;55.840;37.442;2023-04-29T11:27:22;4.03;;;1.38;;
56073;SDS011;41950;55.840;37.442;2023-04-29T11:29:53;3.63;;;1.42;;
56073;SDS011;41950;55.840;37.442;2023-04-29T11:32:26;6.75;;;2.28;;
56073;SDS011;41950;55.840;37.442;2023-04-29T11:34:53;2.55;;;1.30;;
56073;SDS011;41950;55.840;37.442;2023-04-29T11:37:20;2.95;;;1.27;;
56073;SDS011;41950;55.840;37.442;2023-04-29T11:42:23;2.70;;;1.17;;
56073;SDS011;41950;55.840;37.442;2023-04-29T11:44:50;3.33;;;1.42;;
56073;SDS011;41950;55.840;37.442;2023-04-29T11:47:17;3.55;;;1.17;;
56073;SDS011;41950;55.840;37.442;2023-04-29T11:49:43;3.33;;;1.40;;
56073;SDS011;41950;55.840;37.442;2023-04-29T11:52:09;2.85;;;1.08;;
56073;SDS011;41950;55.840;37.442;2023-04-29T11:54:35;3.28;;;1.17;;
56073;SDS011;41950;55.840;37.442;2023-04-29T11:57:01;3.13;;;1.23;;
56073;SDS011;41950;55.840;37.442;2023-04-29T11:59:32;2.33;;;1.10;;
56073;SDS011;41950;55.840;37.442;2023-04-29T12:01:58;5.30;;;3.08;;
56073;SDS011;41950;55.840;37.442;2023-04-29T12:04:25;3.90;;;1.73;;
56073;SDS011;41950;55.840;37.442;2023-04-29T12:06:51;3.17;;;1.30;;
56073;SDS011;41950;55.840;37.442;2023-04-29T12:09:20;3.42;;;1.48;;
56073;SDS011;41950;55.840;37.442;2023-04-29T12:11:53;3.20;;;1.40;;
56073;SDS011;41950;55.840;37.442;2023-04-29T12:14:22;4.63;;;1.48;;
56073;SDS011;41950;55.840;37.442;2023-04-29T12:16:48;3.95;;;1.30;;
56073;SDS011;41950;55.840;37.442;2023-04-29T12:19:14;3.53;;;1.50;;
56073;SDS011;41950;55.840;37.442;2023-04-29T12:21:47;3.47;;;1.20;;
56073;SDS011;41950;55.840;37.442;2023-04-29T12:24:16;3.53;;;0.90;;
56073;SDS011;41950;55.840;37.442;2023-04-29T12:26:43;3.47;;;1.13;;
56073;SDS011;41950;55.840;37.442;2023-04-29T12:29:09;2.70;;;1.10;;
56073;SDS011;41950;55.840;37.442;2023-04-29T12:31:35;2.55;;;1.13;;
56073;SDS011;41950;55.840;37.442;2023-04-29T12:34:04;3.53;;;1.13;;
56073;SDS011;41950;55.840;37.442;2023-04-29T12:36:32;3.72;;;1.20;;
56073;SDS011;41950;55.840;37.442;2023-04-29T12:38:58;3.05;;;1.00;;
56073;SDS011;41950;55.840;37.442;2023-04-29T12:44:22;2.63;;;1.10;;
56073;SDS011;41950;55.840;37.442;2023-04-29T12:46:49;3.80;;;1.55;;
56073;SDS011;41950;55.840;37.442;2023-04-29T12:49:17;3.92;;;1.17;;
56073;SDS011;41950;55.840;37.442;2023-04-29T12:51:43;3.05;;;1.27;;
56073;SDS011;41950;55.840;37.442;2023-04-29T12:54:09;2.60;;;1.10;;
56073;SDS011;41950;55.840;37.442;2023-04-29T12:56:36;2.97;;;1.48;;
56073;SDS011;41950;55.840;37.442;2023-04-29T12:59:06;2.80;;;1.10;;
56073;SDS011;41950;55.840;37.442;2023-04-29T13:01:36;3.75;;;1.30;;
56073;SDS011;41950;55.840;37.442;2023-04-29T13:04:03;2.67;;;1.10;;
56073;SDS011;41950;55.840;37.442;2023-04-29T13:06:33;3.33;;;1.20;;
56073;SDS011;41950;55.840;37.442;2023-04-29T13:09:06;3.88;;;1.10;;
56073;SDS011;41950;55.840;37.442;2023-04-29T13:11:35;3.05;;;1.17;;
56073;SDS011;41950;55.840;37.442;2023-04-29T13:14:07;2.72;;;0.75;;
56073;SDS011;41950;55.840;37.442;2023-04-29T13:16:40;2.75;;;1.23;;
56073;SDS011;41950;55.840;37.442;2023-04-29T13:19:06;2.63;;;1.15;;
56073;SDS011;41950;55.840;37.442;2023-04-29T13:21:31;2.40;;;1.10;;
56073;SDS011;41950;55.840;37.442;2023-04-29T13:23:57;2.95;;;1.20;;
56073;SDS011;41950;55.840;37.442;2023-04-29T13:26:23;2.47;;;1.00;;
56073;SDS011;41950;55.840;37.442;2023-04-29T13:28:49;2.28;;;0.98;;
56073;SDS011;41950;55.840;37.442;2023-04-29T13:31:16;2.58;;;1.00;;
56073;SDS011;41950;55.840;37.442;2023-04-29T13:33:42;3.30;;;1.00;;
56073;SDS011;41950;55.840;37.442;2023-04-29T13:36:13;3.67;;;0.95;;
56073;SDS011;41950;55.840;37.442;2023-04-29T13:38:40;2.72;;;1.00;;
56073;SDS011;41950;55.840;37.442;2023-04-29T13:41:06;2.80;;;0.80;;
56073;SDS011;41950;55.840;37.442;2023-04-29T13:43:32;2.45;;;0.88;;
56073;SDS011;41950;55.840;37.442;2023-04-29T13:45:57;2.38;;;0.90;;
56073;SDS011;41950;55.840;37.442;2023-04-29T13:48:23;2.58;;;0.80;;
56073;SDS011;41950;55.840;37.442;2023-04-29T13:50:49;2.45;;;0.93;;
56073;SDS011;41950;55.840;37.442;2023-04-29T13:53:15;3.42;;;0.90;;
56073;SDS011;41950;55.840;37.442;2023-04-29T13:55:43;2.65;;;0.93;;
56073;SDS011;41950;55.840;37.442;2023-04-29T13:58:09;2.75;;;0.80;;
56073;SDS011;41950;55.840;37.442;2023-04-29T14:00:35;2.50;;;0.90;;
56073;SDS011;41950;55.840;37.442;2023-04-29T14:03:01;3.58;;;0.80;;
56073;SDS011;41950;55.840;37.442;2023-04-29T14:05:27;2.00;;;0.70;;
56073;SDS011;41950;55.840;37.442;2023-04-29T14:07:56;2.58;;;1.10;;
56073;SDS011;41950;55.840;37.442;2023-04-29T14:10:24;2.90;;;0.90;;
56073;SDS011;41950;55.840;37.442;2023-04-29T14:12:55;3.92;;;1.48;;
56073;SDS011;41950;55.840;37.442;2023-04-29T14:15:21;4.68;;;1.20;;
56073;SDS011;41950;55.840;37.442;2023-04-29T14:17:49;3.00;;;1.20;;
56073;SDS011;41950;55.840;37.442;2023-04-29T14:20:16;2.87;;;1.00;;
56073;SDS011;41950;55.840;37.442;2023-04-29T14:22:42;3.58;;;0.90;;
56073;SDS011;41950;55.840;37.442;2023-04-29T14:25:08;2.35;;;0.82;;
56073;SDS011;41950;55.840;37.442;2023-04-29T14:27:36;2.35;;;1.00;;
56073;SDS011;41950;55.840;37.442;2023-04-29T14:30:02;3.33;;;0.82;;
56073;SDS011;41950;55.840;37.442;2023-04-29T14:32:30;2.15;;;0.90;;
56073;SDS011;41950;55.840;37.442;2023-04-29T14:34:55;3.80;;;1.25;;
56073;SDS011;41950;55.840;37.442;2023-04-29T14:37:24;2.53;;;1.10;;
56073;SDS011;41950;55.840;37.442;2023-04-29T14:39:51;2.72;;;1.00;;
56073;SDS011;41950;55.840;37.442;2023-04-29T14:42:19;2.55;;;1.13;;
56073;SDS011;41950;55.840;37.442;2023-04-29T14:44:45;2.42;;;1.05;;
56073;SDS011;41950;55.840;37.442;2023-04-29T14:47:11;2.28;;;1.00;;
56073;SDS011;41950;55.840;37.442;2023-04-29T14:49:37;3.10;;;1.10;;
56073;SDS011;41950;55.840;37.442;2023-04-29T14:52:03;1.77;;;0.80;;
56073;SDS011;41950;55.840;37.442;2023-04-29T14:54:29;2.35;;;1.00;;
56073;SDS011;41950;55.840;37.442;2023-04-29T14:56:55;2.88;;;1.08;;
56073;SDS011;41950;55.840;37.442;2023-04-29T14:59:21;2.63;;;0.90;;
56073;SDS011;41950;55.840;37.442;2023-04-29T15:01:49;3.47;;;0.80;;
56073;SDS011;41950;55.840;37.442;2023-04-29T15:04:15;3.85;;;1.20;;
56073;SDS011;41950;55.840;37.442;2023-04-29T15:06:41;1.80;;;0.80;;
56073;SDS011;41950;55.840;37.442;2023-04-29T15:09:09;3.38;;;0.93;;